Time;durP1;ratioP1;P1;durP2;ratioP2;P2;SDS_P1;SDS_P2;PMS_P1;PMS_P2;Temp;Humidity;BMP_temperature;BMP_pressure;BME280_temperature;BME280_humidity;BME280_pressure;Samples;Min_cycle;Max_cycle;Signal;HPM_P1;HPM_P2
2023/07/29 00:00:44;;;;;;;7.60;2.75;;;;;;;15.45;100.00;93679.84;4940068;28;20090;-65
2023/07/29 00:03:11;;;;;;;5.53;2.80;;;;;;;15.44;100.00;93681.09;4939174;29;20047;-65
2023/07/29 00:05:38;;;;;;;7.40;2.90;;;;;;;15.45;100.00;93674.31;4929976;29;20050;-65
2023/07/29 00:08:05;;;;;;;5.95;2.97;;;;;;;15.50;100.00;93674.50;4925886;29;20420;-65
2023/07/29 00:10:35;;;;;;;6.47;2.93;;;;;;;15.45;100.00;93677.84;4937478;29;20048;-65
2023/07/29 00:13:03;;;;;;;6.45;2.90;;;;;;;15.50;100.00;93676.50;4905792;29;20056;-65
2023/07/29 00:15:31;;;;;;;5.10;2.80;;;;;;;15.58;100.00;93675.78;4936914;28;20051;-65
2023/07/29 00:17:57;;;;;;;4.88;2.75;;;;;;;15.56;100.00;93669.91;4938801;29;20051;-65
2023/07/29 00:20:24;;;;;;;8.63;3.00;;;;;;;15.60;100.00;93663.50;4934634;29;20043;-66
2023/07/29 00:22:53;;;;;;;4.53;2.80;;;;;;;15.63;100.00;93665.34;4920721;28;20136;-64
2023/07/29 00:25:21;;;;;;;5.03;2.75;;;;;;;15.61;100.00;93663.03;4912274;29;20067;-66
2023/07/29 00:27:48;;;;;;;5.15;3.05;;;;;;;15.62;100.00;93666.56;4927928;29;20066;-64
2023/07/29 00:30:15;;;;;;;4.90;2.80;;;;;;;15.64;100.00;93658.59;4914184;29;20409;-64
2023/07/29 00:32:41;;;;;;;4.82;2.97;;;;;;;15.63;100.00;93663.34;4923578;29;20048;-66
2023/07/29 00:35:08;;;;;;;5.67;3.53;;;;;;;15.51;100.00;93669.72;4930243;29;20385;-64
2023/07/29 00:37:37;;;;;;;6.20;3.70;;;;;;;15.43;100.00;93662.94;4934920;28;20043;-64
2023/07/29 00:40:16;;;;;;;6.95;4.32;;;;;;;15.27;100.00;93663.94;4942495;28;20060;-67
2023/07/29 00:42:42;;;;;;;16.33;10.27;;;;;;;15.31;100.00;93667.31;4945615;28;20958;-64
2023/07/29 00:45:09;;;;;;;49.42;34.80;;;;;;;15.33;100.00;93662.13;4937431;28;20040;-64
2023/07/29 00:47:38;;;;;;;10.10;6.60;;;;;;;15.39;100.00;93668.59;4933642;29;20450;-66
2023/07/29 00:50:06;;;;;;;7.35;4.05;;;;;;;15.36;100.00;93669.50;4935066;29;20623;-66
2023/07/29 00:52:34;;;;;;;7.43;3.80;;;;;;;15.42;100.00;93664.19;4937991;29;20047;-66
2023/07/29 00:55:01;;;;;;;7.07;4.00;;;;;;;15.31;100.00;93661.78;4938121;29;20519;-64
2023/07/29 00:57:29;;;;;;;6.32;4.00;;;;;;;15.29;100.00;93658.72;4938152;28;20081;-64
2023/07/29 00:59:57;;;;;;;7.07;3.80;;;;;;;15.25;100.00;93653.34;4939117;29;20058;-64
2023/07/29 01:02:24;;;;;;;7.15;3.75;;;;;;;15.28;100.00;93651.66;4937073;29;20125;-64
2023/07/29 01:04:55;;;;;;;6.15;3.90;;;;;;;15.20;100.00;93655.91;4932964;29;20122;-66
2023/07/29 01:07:57;;;;;;;27.33;18.10;;;;;;;15.22;100.00;93657.00;4941635;29;20052;-66
2023/07/29 01:10:37;;;;;;;7.20;4.35;;;;;;;15.14;100.00;93664.78;4927892;29;20085;-65
2023/07/29 01:13:10;;;;;;;5.80;3.23;;;;;;;15.09;100.00;93662.59;4939832;29;20093;-66
2023/07/29 01:15:47;;;;;;;8.90;3.97;;;;;;;14.91;100.00;93656.94;4936833;29;20055;-65
2023/07/29 01:18:23;;;;;;;6.22;3.50;;;;;;;14.94;100.00;93658.81;4937372;29;20110;-65
2023/07/29 01:20:53;;;;;;;6.70;3.78;;;;;;;15.02;100.00;93651.81;4935785;29;20409;-64
2023/07/29 01:23:29;;;;;;;6.20;3.80;;;;;;;15.03;100.00;93647.84;4916650;29;20059;-64
2023/07/29 01:25:56;;;;;;;5.80;3.63;;;;;;;15.02;100.00;93642.75;4926677;29;20052;-64
2023/07/29 01:28:24;;;;;;;8.77;3.70;;;;;;;14.95;100.00;93641.00;4933672;28;20563;-65
2023/07/29 01:30:57;;;;;;;9.05;4.68;;;;;;;14.91;100.00;93637.59;4923497;29;20151;-65
2023/07/29 01:33:27;;;;;;;8.43;5.20;;;;;;;14.82;100.00;93643.06;4940110;29;20047;-65
2023/07/29 01:35:58;;;;;;;8.02;4.60;;;;;;;14.83;100.00;93647.38;4938529;29;20047;-64
2023/07/29 01:38:35;;;;;;;9.13;4.70;;;;;;;14.83;100.00;93641.84;4936585;29;20118;-64
2023/07/29 01:41:02;;;;;;;6.00;4.10;;;;;;;14.83;100.00;93637.09;4939128;29;20048;-64
2023/07/29 01:43:30;;;;;;;7.18;4.13;;;;;;;14.83;100.00;93639.06;4941000;29;20048;-64
2023/07/29 01:45:57;;;;;;;8.88;4.05;;;;;;;14.80;100.00;93637.22;4941136;28;20102;-66
2023/07/29 01:48:24;;;;;;;8.57;4.63;;;;;;;14.64;100.00;93643.72;4940670;29;20443;-64
2023/07/29 01:50:51;;;;;;;8.80;4.67;;;;;;;14.48;100.00;93639.88;4937405;29;20073;-64
2023/07/29 01:53:18;;;;;;;8.45;4.68;;;;;;;14.45;100.00;93640.78;4936196;29;20521;-64
2023/07/29 01:55:44;;;;;;;9.68;4.75;;;;;;;14.42;100.00;93633.38;4940914;29;20047;-64
2023/07/29 01:58:11;;;;;;;9.02;4.97;;;;;;;14.49;100.00;93635.13;4940662;29;20044;-65
2023/07/29 02:00:38;;;;;;;8.93;4.80;;;;;;;14.48;100.00;93636.34;4923974;29;20048;-64
2023/07/29 02:03:05;;;;;;;8.27;5.27;;;;;;;14.57;100.00;93628.94;4942559;29;20047;-64
2023/07/29 02:05:32;;;;;;;10.13;5.68;;;;;;;14.51;100.00;93630.69;4932620;29;20464;-64
2023/07/29 02:07:59;;;;;;;39.50;6.35;;;;;;;14.48;100.00;93633.56;4933005;29;20437;-64
2023/07/29 02:10:26;;;;;;;14.90;6.28;;;;;;;14.49;100.00;93633.13;4931732;29;20047;-66
2023/07/29 02:12:52;;;;;;;11.10;5.80;;;;;;;14.53;100.00;93642.06;4915251;29;20046;-64
2023/07/29 02:15:19;;;;;;;9.97;5.67;;;;;;;14.54;100.00;93637.31;4932454;29;20052;-66
2023/07/29 02:17:46;;;;;;;8.65;5.25;;;;;;;14.54;100.00;93634.53;4932707;29;20044;-64
2023/07/29 02:20:13;;;;;;;7.43;4.95;;;;;;;14.55;100.00;93628.59;4930173;29;20035;-64
2023/07/29 02:22:39;;;;;;;7.38;4.95;;;;;;;14.55;100.00;93625.81;4931318;29;20070;-65
2023/07/29 02:25:07;;;;;;;9.20;4.55;;;;;;;14.55;100.00;93625.06;4948724;28;20035;-64
2023/07/29 02:27:33;;;;;;;7.27;4.27;;;;;;;14.57;100.00;93625.41;4941658;29;20438;-66
2023/07/29 02:30:00;;;;;;;7.32;4.40;;;;;;;14.54;100.00;93623.50;4940083;29;20102;-65
2023/07/29 02:32:27;;;;;;;8.75;4.28;;;;;;;14.51;100.00;93622.41;4945246;29;20389;-64
2023/07/29 02:34:54;;;;;;;9.23;4.30;;;;;;;14.48;100.00;93628.06;4932327;29;20123;-64
2023/07/29 02:37:21;;;;;;;7.22;4.28;;;;;;;14.51;100.00;93633.47;4932124;29;20055;-66
2023/07/29 02:39:48;;;;;;;6.30;4.20;;;;;;;14.65;100.00;93636.94;4932460;29;20056;-64
2023/07/29 02:42:15;;;;;;;8.02;4.47;;;;;;;14.70;100.00;93639.16;4932072;29;20118;-64
2023/07/29 02:44:41;;;;;;;7.38;4.70;;;;;;;14.77;100.00;93630.63;4931450;29;20457;-66
2023/07/29 02:47:08;;;;;;;7.55;4.45;;;;;;;14.83;100.00;93633.56;4932125;29;20387;-64
2023/07/29 02:49:35;;;;;;;6.88;4.97;;;;;;;14.76;100.00;93635.34;4914689;29;20044;-64
2023/07/29 02:52:02;;;;;;;8.63;4.77;;;;;;;14.65;100.00;93634.97;4932135;29;20051;-66
2023/07/29 02:54:29;;;;;;;7.50;5.30;;;;;;;14.65;100.00;93631.44;4931746;29;20044;-65
2023/07/29 02:56:55;;;;;;;9.80;5.28;;;;;;;14.64;100.00;93630.66;4932254;29;20054;-65
2023/07/29 02:59:22;;;;;;;7.05;4.60;;;;;;;14.76;100.00;93629.06;4915072;29;20052;-64
2023/07/29 03:01:49;;;;;;;7.15;4.55;;;;;;;14.83;100.00;93631.59;4922097;29;20047;-65
2023/07/29 03:04:16;;;;;;;6.60;4.53;;;;;;;14.93;100.00;93621.34;4931899;29;20056;-65
2023/07/29 03:06:42;;;;;;;6.53;4.40;;;;;;;14.98;100.00;93618.78;4949058;29;20043;-66
2023/07/29 03:09:09;;;;;;;6.20;4.50;;;;;;;15.02;100.00;93620.66;4926555;29;20044;-65
2023/07/29 03:11:36;;;;;;;6.65;3.90;;;;;;;14.92;100.00;93620.56;4938989;29;20381;-68
2023/07/29 03:14:03;;;;;;;7.50;4.35;;;;;;;15.00;100.00;93617.56;4944605;28;20493;-67
2023/07/29 03:16:29;;;;;;;5.80;4.10;;;;;;;14.88;100.00;93616.41;4939183;29;20488;-65
2023/07/29 03:18:57;;;;;;;8.10;4.15;;;;;;;14.88;100.00;93610.88;4919998;29;20052;-66
2023/07/29 03:21:24;;;;;;;6.68;4.78;;;;;;;14.93;100.00;93618.56;4933907;29;20417;-67
2023/07/29 03:23:51;;;;;;;6.18;4.20;;;;;;;14.97;100.00;93620.00;4938658;29;20051;-65
2023/07/29 03:26:18;;;;;;;5.22;3.80;;;;;;;15.04;100.00;93612.66;4926479;29;20050;-64
2023/07/29 03:28:45;;;;;;;6.13;4.00;;;;;;;15.12;100.00;93616.72;4939539;29;20496;-64
2023/07/29 03:31:12;;;;;;;5.93;4.10;;;;;;;15.14;100.00;93617.03;4938378;29;20899;-64
2023/07/29 03:33:39;;;;;;;7.40;4.28;;;;;;;14.92;100.00;93606.00;4934217;29;20404;-64
2023/07/29 03:36:06;;;;;;;7.03;4.50;;;;;;;14.81;100.00;93611.91;4935610;29;20069;-65
2023/07/29 03:38:39;;;;;;;7.63;4.57;;;;;;;14.81;100.00;93611.91;4938925;29;20046;-64
2023/07/29 03:41:08;;;;;;;5.60;3.80;;;;;;;14.88;100.00;93611.66;4931361;29;20051;-64
2023/07/29 03:43:35;;;;;;;6.03;4.07;;;;;;;14.97;100.00;93611.72;4933214;29;20400;-64
2023/07/29 03:46:01;;;;;;;5.18;3.90;;;;;;;15.04;100.00;93607.91;4935846;29;20687;-67
2023/07/29 03:48:28;;;;;;;6.13;4.10;;;;;;;15.01;100.00;93599.75;4929609;29;20042;-65
2023/07/29 03:50:55;;;;;;;7.45;4.30;;;;;;;14.91;100.00;93594.19;4936902;29;20055;-69
2023/07/29 03:53:22;;;;;;;5.40;3.90;;;;;;;15.00;100.00;93598.97;4938506;29;20414;-65
2023/07/29 03:55:50;;;;;;;6.10;3.90;;;;;;;14.93;100.00;93590.94;4937859;29;20043;-65
2023/07/29 03:58:16;;;;;;;5.95;3.80;;;;;;;14.93;100.00;93593.72;4928337;29;20566;-65
2023/07/29 04:00:43;;;;;;;5.82;3.88;;;;;;;14.88;100.00;93597.06;4915036;29;20051;-66
2023/07/29 04:03:10;;;;;;;5.28;3.85;;;;;;;14.86;100.00;93594.75;4932998;28;20121;-67
2023/07/29 04:05:36;;;;;;;6.07;4.07;;;;;;;14.91;100.00;93608.00;4938570;29;20047;-65
2023/07/29 04:08:03;;;;;;;13.07;9.55;;;;;;;14.98;100.00;93602.19;4938759;29;20070;-66
2023/07/29 04:10:31;;;;;;;7.13;4.88;;;;;;;14.99;100.00;93605.75;4943413;29;20432;-64
2023/07/29 04:12:58;;;;;;;5.80;3.58;;;;;;;14.82;100.00;93604.41;4938936;29;20106;-64
2023/07/29 04:15:25;;;;;;;6.22;4.30;;;;;;;14.72;100.00;93609.84;4930396;29;20655;-66
2023/07/29 04:17:52;;;;;;;6.73;4.37;;;;;;;14.71;100.00;93610.31;4938672;29;20070;-65
2023/07/29 04:20:18;;;;;;;7.05;4.20;;;;;;;14.82;100.00;93618.22;4937951;29;20658;-66
2023/07/29 04:22:45;;;;;;;5.30;3.72;;;;;;;14.96;100.00;93614.91;4925867;29;20121;-64
2023/07/29 04:25:13;;;;;;;7.03;4.40;;;;;;;14.91;100.00;93615.50;4940680;29;20039;-65
2023/07/29 04:27:39;;;;;;;7.07;4.00;;;;;;;15.09;100.00;93623.91;4930788;29;20094;-65
2023/07/29 04:30:07;;;;;;;6.17;4.17;;;;;;;15.17;100.00;93605.84;4930198;29;20102;-66
2023/07/29 04:32:35;;;;;;;5.88;3.50;;;;;;;15.24;100.00;93617.84;4929752;29;20051;-66
2023/07/29 04:35:02;;;;;;;6.20;3.92;;;;;;;15.32;100.00;93619.88;4913509;29;20504;-65
2023/07/29 04:37:29;;;;;;;5.57;3.97;;;;;;;15.46;100.00;93618.56;4930276;29;20050;-67
2023/07/29 04:39:55;;;;;;;5.30;3.80;;;;;;;15.35;100.00;93620.97;4930466;29;20051;-65
2023/07/29 04:42:22;;;;;;;6.07;3.83;;;;;;;15.51;100.00;93619.94;4937986;29;20043;-64
2023/07/29 04:44:49;;;;;;;7.28;4.15;;;;;;;15.43;100.00;93615.94;4930214;29;20052;-65
2023/07/29 04:47:15;;;;;;;5.88;3.75;;;;;;;15.44;100.00;93621.00;4933914;29;20048;-66
2023/07/29 04:49:42;;;;;;;7.55;4.28;;;;;;;15.43;100.00;93616.69;4944936;28;20036;-65
2023/07/29 04:52:09;;;;;;;5.88;3.70;;;;;;;15.38;100.00;93611.78;4930262;29;20055;-65
2023/07/29 04:54:36;;;;;;;7.90;4.40;;;;;;;15.46;100.00;93613.03;4929268;29;20058;-64
2023/07/29 04:57:03;;;;;;;5.97;4.28;;;;;;;15.74;100.00;93611.16;4929547;29;20525;-67
2023/07/29 04:59:29;;;;;;;6.18;4.15;;;;;;;16.02;100.00;93610.44;4911449;29;20048;-66
2023/07/29 05:01:56;;;;;;;6.43;4.07;;;;;;;16.21;100.00;93608.50;4916762;29;20047;-65
2023/07/29 05:04:23;;;;;;;6.30;3.85;;;;;;;16.34;100.00;93609.91;4930031;29;20440;-65
2023/07/29 05:06:50;;;;;;;7.30;4.10;;;;;;;16.42;100.00;93609.59;4930459;29;20047;-65
2023/07/29 05:09:19;;;;;;;6.47;3.85;;;;;;;16.48;100.00;93610.50;4930403;29;20043;-65
2023/07/29 05:11:47;;;;;;;7.53;4.15;;;;;;;16.61;100.00;93602.06;4944455;28;20052;-65
2023/07/29 05:14:14;;;;;;;6.78;3.88;;;;;;;16.68;100.00;93601.72;4936359;29;20035;-65
2023/07/29 05:16:42;;;;;;;9.63;4.60;;;;;;;16.55;100.00;93613.75;4932523;28;20052;-65
2023/07/29 05:19:09;;;;;;;8.37;4.27;;;;;;;16.53;100.00;93621.75;4916625;29;20519;-65
2023/07/29 05:21:37;;;;;;;5.22;3.90;;;;;;;16.42;100.00;93629.75;4930012;29;20047;-65
2023/07/29 05:24:04;;;;;;;6.57;4.35;;;;;;;16.51;100.00;93626.22;4923788;29;20277;-70
2023/07/29 05:26:31;;;;;;;6.50;4.50;;;;;;;16.51;100.00;93626.22;4901651;29;20151;-66
2023/07/29 05:28:58;;;;;;;6.85;4.05;;;;;;;16.91;100.00;93630.84;4920912;29;20102;-66
2023/07/29 05:31:25;;;;;;;5.73;4.27;;;;;;;17.00;100.00;93625.28;4916096;29;20153;-64
2023/07/29 05:33:51;;;;;;;6.53;4.20;;;;;;;16.86;100.00;93625.91;4921976;29;20044;-65
2023/07/29 05:36:18;;;;;;;6.70;4.03;;;;;;;16.93;100.00;93618.06;4917085;29;20584;-65
2023/07/29 05:38:45;;;;;;;8.43;4.80;;;;;;;17.07;100.00;93611.13;4916393;29;20059;-65
2023/07/29 05:41:11;;;;;;;7.95;4.35;;;;;;;17.24;100.00;93619.84;4921321;29;20054;-65
2023/07/29 05:43:38;;;;;;;7.20;4.40;;;;;;;17.35;100.00;93608.28;4920467;29;20074;-66
2023/07/29 05:46:05;;;;;;;6.55;4.13;;;;;;;17.75;100.00;93615.53;4927063;29;20044;-65
2023/07/29 05:48:32;;;;;;;6.30;4.10;;;;;;;17.88;100.00;93602.22;4925406;29;20052;-65
2023/07/29 05:50:59;;;;;;;6.43;4.00;;;;;;;17.94;100.00;93596.78;4926485;29;20102;-67
2023/07/29 05:53:26;;;;;;;5.63;3.75;;;;;;;19.81;100.00;93585.09;4922832;29;20052;-66
2023/07/29 05:55:52;;;;;;;5.20;3.63;;;;;;;21.17;100.00;93565.22;4923696;29;20051;-67
2023/07/29 05:58:19;;;;;;;5.45;3.60;;;;;;;20.98;100.00;93569.56;4922413;29;20059;-65
2023/07/29 06:00:46;;;;;;;5.00;3.70;;;;;;;19.64;100.00;93567.34;4932281;28;20055;-66
2023/07/29 06:03:13;;;;;;;6.60;3.50;;;;;;;18.78;100.00;93572.72;4934732;28;20114;-67
2023/07/29 06:05:39;;;;;;;5.10;3.40;;;;;;;21.60;100.00;93561.78;4925023;29;20133;-66
2023/07/29 06:08:08;;;;;;;5.43;3.30;;;;;;;23.64;100.00;93555.69;4927751;28;20043;-67
2023/07/29 06:10:35;;;;;;;5.55;3.42;;;;;;;23.39;100.00;93551.88;4924790;28;20060;-66
2023/07/29 06:13:02;;;;;;;5.63;3.63;;;;;;;22.19;100.00;93557.56;4921507;29;20047;-65
2023/07/29 06:15:28;;;;;;;6.55;3.17;;;;;;;23.75;100.00;93552.88;4921076;29;20047;-67
2023/07/29 06:17:55;;;;;;;4.72;3.00;;;;;;;23.58;100.00;93566.13;4929583;28;20046;-66
2023/07/29 06:20:23;;;;;;;5.40;3.40;;;;;;;24.10;100.00;93569.16;4930235;28;20055;-67
2023/07/29 06:22:50;;;;;;;4.70;3.10;;;;;;;24.31;100.00;93580.84;4921361;29;20043;-67
2023/07/29 06:25:17;;;;;;;4.90;2.97;;;;;;;25.57;100.00;93576.16;4929772;28;20436;-68
2023/07/29 06:27:44;;;;;;;4.80;3.20;;;;;;;24.75;100.00;93572.81;4937064;28;20248;-66
2023/07/29 06:30:10;;;;;;;5.05;3.00;;;;;;;23.88;100.00;93569.94;4934345;28;20142;-65
2023/07/29 06:32:37;;;;;;;5.00;3.50;;;;;;;22.23;100.00;93564.44;4920633;29;20052;-66
2023/07/29 06:35:04;;;;;;;5.72;3.35;;;;;;;20.64;100.00;93588.72;4920042;29;20056;-66
2023/07/29 06:37:33;;;;;;;5.95;3.63;;;;;;;20.46;100.00;93581.41;4919563;29;20043;-67
2023/07/29 06:40:00;;;;;;;5.80;3.50;;;;;;;20.54;100.00;93583.28;4921559;29;20044;-67
2023/07/29 06:42:26;;;;;;;4.88;3.42;;;;;;;20.82;100.00;93593.25;4938858;28;20045;-66
2023/07/29 06:44:53;;;;;;;4.97;3.53;;;;;;;21.38;100.00;93588.22;4927989;28;20073;-67
2023/07/29 06:47:20;;;;;;;5.55;3.60;;;;;;;21.09;100.00;93584.41;4919957;29;20396;-66
2023/07/29 06:49:47;;;;;;;5.60;3.63;;;;;;;21.05;100.00;93575.50;4925815;28;20414;-69
2023/07/29 06:52:14;;;;;;;6.95;3.35;;;;;;;20.82;100.00;93573.72;4920333;28;20334;-68
2023/07/29 06:54:40;;;;;;;5.78;3.50;;;;;;;20.71;100.00;93566.78;4923635;28;20078;-67
2023/07/29 06:57:08;;;;;;;4.50;3.27;;;;;;;20.79;100.00;93577.50;4924207;28;20048;-66
2023/07/29 06:59:34;;;;;;;4.43;3.10;;;;;;;21.33;100.00;93561.03;4929540;28;20047;-66
2023/07/29 07:02:01;;;;;;;4.10;3.05;;;;;;;22.97;100.00;93557.13;4928042;28;20067;-66
2023/07/29 07:04:29;;;;;;;6.57;3.10;;;;;;;23.11;100.00;93558.19;4933398;28;20192;-68
2023/07/29 07:06:55;;;;;;;7.18;3.05;;;;;;;22.74;100.00;93559.88;4942485;28;20680;-69
2023/07/29 07:09:22;;;;;;;4.20;2.70;;;;;;;22.92;100.00;93564.25;4939813;28;20051;-66
2023/07/29 07:11:49;;;;;;;4.90;3.08;;;;;;;22.02;100.00;93563.84;4928376;28;20482;-71
2023/07/29 07:14:16;;;;;;;5.07;3.42;;;;;;;21.36;100.00;93574.00;4906929;29;20048;-66
2023/07/29 07:16:42;;;;;;;5.18;3.45;;;;;;;21.38;100.00;93567.91;4923790;29;20326;-67
2023/07/29 07:19:09;;;;;;;4.93;3.35;;;;;;;21.53;100.00;93568.56;4905167;29;20107;-69
2023/07/29 07:21:36;;;;;;;5.60;3.37;;;;;;;21.52;100.00;93567.03;4925287;29;20075;-67
2023/07/29 07:24:03;;;;;;;5.10;3.47;;;;;;;22.25;100.00;93556.34;4919512;29;20070;-68
2023/07/29 07:26:30;;;;;;;4.68;3.40;;;;;;;22.14;100.00;93557.03;4920873;29;20063;-68
2023/07/29 07:28:56;;;;;;;5.13;3.70;;;;;;;22.74;100.00;93554.28;4928968;28;20469;-68
2023/07/29 07:31:23;;;;;;;7.22;3.40;;;;;;;22.48;100.00;93556.47;4920461;29;20055;-67
2023/07/29 07:33:50;;;;;;;5.30;3.10;;;;;;;22.02;100.00;93563.06;4916913;29;20400;-69
2023/07/29 07:36:16;;;;;;;4.82;3.40;;;;;;;22.63;100.00;93564.66;4927031;28;20057;-67
2023/07/29 07:38:43;;;;;;;5.40;3.45;;;;;;;22.32;100.00;93555.88;4929548;28;20066;-66
2023/07/29 07:41:10;;;;;;;5.07;3.30;;;;;;;21.90;100.00;93557.41;4926386;28;20055;-67
2023/07/29 07:43:37;;;;;;;5.60;3.60;;;;;;;21.58;100.00;93576.22;4900949;29;21001;-67
2023/07/29 07:46:04;;;;;;;5.07;3.30;;;;;;;20.98;100.00;93583.53;4918514;29;20424;-68
2023/07/29 07:48:33;;;;;;;5.82;3.45;;;;;;;20.87;100.00;93587.72;4919208;29;20387;-69
2023/07/29 07:50:59;;;;;;;5.88;3.38;;;;;;;20.43;100.00;93587.97;4917606;29;20074;-67
2023/07/29 07:53:26;;;;;;;5.03;3.00;;;;;;;20.54;100.00;93605.59;4920016;29;20498;-67
2023/07/29 07:55:53;;;;;;;6.72;3.20;;;;;;;20.69;100.00;93616.69;4922968;29;20052;-70
2023/07/29 07:58:20;;;;;;;7.80;3.80;;;;;;;20.72;100.00;93601.75;4935800;28;20563;-67
2023/07/29 08:00:47;;;;;;;5.88;3.10;;;;;;;20.77;100.00;93596.75;4920951;28;20114;-68
2023/07/29 08:03:13;;;;;;;5.47;3.28;;;;;;;20.58;100.00;93599.78;4922414;29;20804;-69
2023/07/29 08:05:40;;;;;;;4.57;3.03;;;;;;;20.64;100.00;93606.22;4920247;28;20522;-67
2023/07/29 08:08:07;;;;;;;4.40;3.00;;;;;;;20.50;100.00;93609.81;4920577;29;20047;-70
2023/07/29 08:10:34;;;;;;;4.10;2.67;;;;;;;20.20;100.00;93614.75;4920040;29;20060;-69
2023/07/29 08:13:01;;;;;;;4.10;2.80;;;;;;;20.83;100.00;93605.94;4922481;29;20478;-68
2023/07/29 08:15:27;;;;;;;5.55;2.70;;;;;;;21.85;100.00;93596.47;4919914;29;20046;-71
2023/07/29 08:17:54;;;;;;;3.30;2.15;;;;;;;25.33;100.00;93597.28;4921588;29;20048;-69
2023/07/29 08:20:21;;;;;;;3.58;2.00;;;;;;;25.35;100.00;93605.19;4919008;29;20102;-67
2023/07/29 08:22:47;;;;;;;3.53;2.13;;;;;;;27.26;96.70;93594.91;4919779;28;20060;-66
2023/07/29 08:25:14;;;;;;;4.35;2.38;;;;;;;24.16;100.00;93597.19;4917553;29;20138;-66
2023/07/29 08:27:41;;;;;;;3.10;2.00;;;;;;;27.90;93.53;93587.84;4918943;29;20052;-64
2023/07/29 08:30:08;;;;;;;3.13;1.90;;;;;;;27.77;86.17;93585.72;4919723;29;20076;-66
2023/07/29 08:32:35;;;;;;;3.35;2.00;;;;;;;28.42;89.22;93597.69;4918551;29;20505;-66
2023/07/29 08:35:02;;;;;;;3.50;2.10;;;;;;;28.68;83.83;93594.16;4918060;29;20060;-68
2023/07/29 08:37:31;;;;;;;3.72;1.85;;;;;;;30.46;74.90;93603.34;4916697;29;20390;-69
2023/07/29 08:39:57;;;;;;;3.88;1.90;;;;;;;31.78;69.95;93587.75;4933643;28;20067;-67
2023/07/29 08:42:30;;;;;;;3.78;2.13;;;;;;;32.40;64.71;93588.59;4919265;29;20060;-66
2023/07/29 08:45:06;;;;;;;6.78;2.38;;;;;;;31.43;68.29;93581.56;4912703;29;20058;-67
2023/07/29 08:47:32;;;;;;;3.70;1.90;;;;;;;33.43;59.30;93587.25;4915484;28;20044;-67
2023/07/29 08:50:02;;;;;;;3.08;2.00;;;;;;;31.59;66.30;93586.00;4914274;29;20060;-66
2023/07/29 08:52:31;;;;;;;3.47;2.08;;;;;;;32.67;58.21;93576.84;4913664;29;20107;-68
2023/07/29 08:54:58;;;;;;;3.30;2.13;;;;;;;31.19;64.85;93571.44;4918277;29;20115;-66
2023/07/29 08:57:26;;;;;;;3.17;2.13;;;;;;;30.01;74.35;93578.22;4918869;29;20043;-66
2023/07/29 08:59:54;;;;;;;3.63;2.30;;;;;;;31.42;63.33;93569.47;4920453;29;20044;-68
2023/07/29 09:02:21;;;;;;;3.72;2.38;;;;;;;30.90;66.20;93573.59;4942295;28;20065;-66
2023/07/29 09:04:48;;;;;;;3.42;2.50;;;;;;;29.70;74.91;93580.72;4968600;28;20043;-66
2023/07/29 09:07:16;;;;;;;3.85;2.60;;;;;;;29.24;75.76;93577.41;4968869;28;20042;-65
2023/07/29 09:09:43;;;;;;;4.18;2.40;;;;;;;30.27;70.64;93569.56;4968425;28;20238;-64
2023/07/29 09:12:11;;;;;;;4.87;2.67;;;;;;;31.18;67.40;93572.78;4951836;28;20097;-65
2023/07/29 09:14:38;;;;;;;4.05;2.60;;;;;;;30.57;67.81;93570.34;4968995;28;20063;-65
2023/07/29 09:17:08;;;;;;;5.18;2.80;;;;;;;31.24;64.74;93573.38;4951524;28;20043;-68
2023/07/29 09:19:35;;;;;;;4.28;2.70;;;;;;;29.07;70.53;93567.16;4971064;28;20054;-65
2023/07/29 09:22:02;;;;;;;3.80;2.70;;;;;;;27.36;79.15;93567.09;4973227;28;20051;-65
2023/07/29 09:24:32;;;;;;;4.13;3.03;;;;;;;25.47;94.91;93581.34;4965289;28;20477;-64
2023/07/29 09:27:00;;;;;;;3.90;2.95;;;;;;;25.52;97.72;93586.19;4972931;28;20078;-65
2023/07/29 09:29:28;;;;;;;4.60;2.95;;;;;;;26.36;90.70;93572.66;4971864;28;20055;-64
2023/07/29 09:32:21;;;;;;;4.32;3.08;;;;;;;27.36;87.43;93569.91;4972532;28;20045;-64
2023/07/29 09:34:48;;;;;;;5.43;3.00;;;;;;;26.56;88.85;93571.41;4971427;28;20705;-65
2023/07/29 09:37:25;;;;;;;4.13;2.93;;;;;;;26.75;88.38;93571.50;4971949;28;20077;-66
2023/07/29 09:39:52;;;;;;;4.40;2.83;;;;;;;25.49;97.01;93568.31;4970710;28;20050;-64
2023/07/29 09:42:20;;;;;;;5.22;3.42;;;;;;;24.87;100.00;93571.47;4971975;28;20635;-65
2023/07/29 09:44:49;;;;;;;4.10;2.83;;;;;;;24.72;98.26;93568.97;4971322;28;20061;-66
2023/07/29 09:47:24;;;;;;;3.88;2.78;;;;;;;26.79;89.78;93572.72;4972201;28;20047;-65
2023/07/29 09:49:52;;;;;;;4.10;2.50;;;;;;;27.87;75.97;93572.75;4971587;28;20622;-64
2023/07/29 09:52:22;;;;;;;4.07;2.40;;;;;;;27.54;69.35;93559.91;4971662;28;20038;-63
2023/07/29 09:54:49;;;;;;;4.32;2.50;;;;;;;27.28;74.47;93569.03;4972275;28;20053;-64
2023/07/29 09:57:18;;;;;;;4.43;2.55;;;;;;;26.33;77.64;93562.47;4971593;28;20055;-63
2023/07/29 09:59:55;;;;;;;4.28;2.63;;;;;;;26.00;80.04;93564.34;4971195;28;20117;-63
2023/07/29 10:02:22;;;;;;;3.97;2.73;;;;;;;26.40;75.50;93573.13;4971140;28;20054;-63
2023/07/29 10:04:49;;;;;;;3.80;2.40;;;;;;;26.44;73.30;93567.97;4971973;28;20050;-64
2023/07/29 10:07:17;;;;;;;3.92;2.50;;;;;;;25.84;75.72;93578.00;4971793;28;20058;-64
2023/07/29 10:09:45;;;;;;;4.07;2.63;;;;;;;26.24;77.15;93570.00;4971155;28;20420;-64
2023/07/29 10:12:13;;;;;;;4.15;2.45;;;;;;;26.06;77.91;93574.25;4971848;28;20038;-63
2023/07/29 10:14:44;;;;;;;5.20;2.77;;;;;;;25.64;78.00;93576.38;4954212;28;20543;-63
2023/07/29 10:17:11;;;;;;;4.38;2.70;;;;;;;26.00;79.58;93573.53;4972014;28;20053;-66
2023/07/29 10:19:39;;;;;;;3.30;2.30;;;;;;;28.93;64.85;93556.44;4971250;28;20055;-65
2023/07/29 10:22:06;;;;;;;3.55;2.50;;;;;;;28.48;64.39;93563.72;4971953;28;20065;-65
2023/07/29 10:24:35;;;;;;;3.20;2.40;;;;;;;29.14;61.32;93562.97;4945439;29;20054;-65
2023/07/29 10:27:02;;;;;;;3.87;2.30;;;;;;;30.55;57.69;93584.31;4952109;29;20059;-65
2023/07/29 10:29:37;;;;;;;3.40;2.30;;;;;;;30.04;53.97;93569.38;4951737;28;20057;-64
2023/07/29 10:32:07;;;;;;;4.40;2.13;;;;;;;30.05;53.54;93568.06;4952305;29;20073;-64
2023/07/29 10:34:35;;;;;;;3.30;2.28;;;;;;;28.79;56.77;93567.00;4951971;29;20047;-64
2023/07/29 10:37:02;;;;;;;3.20;2.40;;;;;;;28.20;60.34;93573.47;4952583;29;20547;-64
2023/07/29 10:39:38;;;;;;;3.90;2.30;;;;;;;30.39;55.06;93567.22;4952032;29;20055;-65
2023/07/29 10:42:06;;;;;;;3.40;2.30;;;;;;;30.47;52.55;93558.78;4952381;29;20054;-66
2023/07/29 10:44:39;;;;;;;4.22;2.40;;;;;;;30.80;50.43;93562.75;4951374;29;20051;-65
2023/07/29 10:47:15;;;;;;;3.78;2.20;;;;;;;29.23;53.19;93564.56;4952241;29;20051;-64
2023/07/29 10:49:44;;;;;;;3.65;2.30;;;;;;;29.18;54.59;93565.47;4951578;29;20047;-65
2023/07/29 10:52:27;;;;;;;3.00;2.20;;;;;;;29.74;52.80;93567.03;4951871;29;20364;-64
2023/07/29 10:54:54;;;;;;;4.65;2.30;;;;;;;29.54;51.91;93571.31;4963287;28;20132;-65
2023/07/29 10:57:35;;;;;;;3.67;2.33;;;;;;;29.43;52.26;93554.59;4970598;28;20046;-65
2023/07/29 11:00:04;;;;;;;3.35;2.10;;;;;;;30.01;51.89;93552.75;4971201;28;20054;-65
2023/07/29 11:02:36;;;;;;;4.53;2.47;;;;;;;28.98;50.91;93544.28;4970207;28;20043;-64
2023/07/29 11:05:17;;;;;;;3.60;2.30;;;;;;;28.34;53.71;93542.44;4971225;28;20050;-64
2023/07/29 11:07:48;;;;;;;3.90;2.40;;;;;;;28.11;52.67;93547.72;4970952;28;20042;-65
2023/07/29 11:10:15;;;;;;;3.40;2.40;;;;;;;28.47;53.83;93550.91;4970996;28;20395;-65
2023/07/29 11:12:53;;;;;;;4.03;2.10;;;;;;;29.37;50.91;93542.66;4970460;28;20455;-66
2023/07/29 11:15:28;;;;;;;3.38;2.40;;;;;;;28.70;52.92;93548.44;4970520;28;20073;-65
2023/07/29 11:17:57;;;;;;;4.33;2.30;;;;;;;29.14;49.62;93536.75;4970734;28;20054;-65
2023/07/29 11:20:26;;;;;;;3.28;2.33;;;;;;;27.96;51.67;93529.28;4970106;28;20456;-66
2023/07/29 11:22:54;;;;;;;3.85;2.42;;;;;;;27.88;51.07;93537.59;4970875;28;20050;-65
2023/07/29 11:25:23;;;;;;;3.30;2.35;;;;;;;28.12;50.92;93544.38;4938366;29;20507;-65
2023/07/29 11:27:52;;;;;;;3.00;2.00;;;;;;;29.13;47.03;93560.69;4939746;29;20043;-67
2023/07/29 11:30:19;;;;;;;3.53;1.93;;;;;;;29.77;45.12;93570.81;4931762;29;20066;-65